Troutlake, Washington
Current Conditions -  °F | °C
As of 1:59 PM on Friday 24 Oct 2014 (Local Time) from K4S2 Reporting Station
Overcast Overcast  
Wind Chill: 52°   Ceiling: 7000
Heat Index: 52°   Visibility: 10mi
Dew Point: 48°   Wind: 0mph
Humidity: 88%   Direction: NA
Pressure: 29.99"   Gusts: NA
Location:  45.9895°N, 121.531°W
Report Text: K4S2 242059Z AUTO 00000KT 10SM OVC070 11/09 A2999 RMK AO2 SLP172 T01100090
Loading
Personal Weather Stations






























Interactive Weather Map
Tropical Storm Tracking
New forecast layout! Learn more

10-Day Weather Forecast

Advertisements
Track Severe Weather on mobile